createdAt,value
2023-03-14T00:01:09.396Z,11.57
2023-03-14T00:03:36.022Z,11.58
2023-03-14T00:06:04.269Z,11.62
2023-03-14T00:08:31.397Z,11.58
2023-03-14T00:10:58.944Z,11.53
2023-03-14T00:13:25.922Z,11.43
2023-03-14T00:15:52.505Z,11.45
2023-03-14T00:18:20.825Z,11.55
2023-03-14T00:20:47.325Z,11.51
2023-03-14T00:23:13.855Z,11.54
2023-03-14T00:25:40.376Z,11.44
2023-03-14T00:28:06.943Z,11.44
2023-03-14T00:30:33.443Z,11.45
2023-03-14T00:32:59.968Z,11.53
2023-03-14T00:35:26.624Z,11.40
2023-03-14T00:37:53.212Z,11.22
2023-03-14T00:40:19.774Z,11.12
2023-03-14T00:42:46.320Z,10.99
2023-03-14T00:45:12.965Z,10.89
2023-03-14T00:47:39.473Z,10.80
2023-03-14T00:50:06.569Z,10.82
2023-03-14T00:52:33.258Z,10.69
2023-03-14T00:54:59.971Z,10.80
2023-03-14T00:57:26.552Z,10.79
2023-03-14T00:59:53.488Z,10.86
2023-03-14T01:02:20.538Z,10.80
2023-03-14T01:04:50.730Z,10.96
2023-03-14T01:07:18.056Z,10.88
2023-03-14T01:09:44.737Z,10.80
2023-03-14T01:12:11.863Z,10.77
2023-03-14T01:14:38.533Z,10.82
2023-03-14T01:17:05.322Z,10.69
2023-03-14T01:19:33.681Z,10.82
2023-03-14T01:22:00.409Z,10.82
2023-03-14T01:24:27.065Z,10.79
2023-03-14T01:26:53.741Z,10.75
2023-03-14T01:29:20.343Z,10.80
2023-03-14T01:31:47.204Z,10.93
2023-03-14T01:34:13.921Z,10.88
2023-03-14T01:36:40.624Z,10.93
2023-03-14T01:39:07.179Z,11.04
2023-03-14T01:41:33.769Z,11.16
2023-03-14T01:44:00.756Z,11.13
2023-03-14T01:46:35.368Z,11.04
2023-03-14T01:49:04.244Z,11.10
2023-03-14T01:51:39.503Z,11.14
2023-03-14T01:54:18.232Z,11.04
2023-03-14T01:56:49.312Z,11.12
2023-03-14T01:59:16.214Z,11.07
2023-03-14T02:01:47.439Z,11.02
2023-03-14T02:04:15.643Z,11.03
2023-03-14T02:06:49.550Z,11.13
2023-03-14T02:09:16.709Z,11.19
2023-03-14T02:11:44.596Z,11.06
2023-03-14T02:14:19.474Z,11.07
2023-03-14T02:16:46.481Z,11.06
2023-03-14T02:19:16.313Z,10.93
2023-03-14T02:21:48.800Z,10.97
2023-03-14T02:25:05.028Z,10.89
2023-03-14T02:27:31.954Z,10.86
2023-03-14T02:30:06.855Z,11.00
2023-03-14T02:32:35.812Z,10.99
2023-03-14T02:35:07.626Z,10.93
2023-03-14T02:37:46.857Z,10.89
2023-03-14T02:40:13.467Z,10.86
2023-03-14T02:42:40.158Z,10.80
2023-03-14T02:45:09.652Z,10.80
2023-03-14T02:47:38.612Z,10.82
2023-03-14T02:50:14.421Z,10.88
2023-03-14T02:52:41.555Z,10.86
2023-03-14T02:55:08.950Z,10.93
2023-03-14T02:57:35.597Z,10.95
2023-03-14T03:00:05.983Z,10.93
2023-03-14T03:02:33.161Z,10.99
2023-03-14T03:04:59.965Z,10.86
2023-03-14T03:07:26.465Z,10.76
2023-03-14T03:09:53.027Z,10.79
2023-03-14T03:12:19.602Z,10.75
2023-03-14T03:14:46.168Z,10.85
2023-03-14T03:17:12.722Z,10.73
2023-03-14T03:19:41.893Z,10.77
2023-03-14T03:22:08.473Z,10.82
2023-03-14T03:24:35.247Z,10.77
2023-03-14T03:27:01.850Z,10.77
2023-03-14T03:29:28.389Z,10.72
2023-03-14T03:31:55.137Z,10.72
2023-03-14T03:34:21.871Z,10.68
2023-03-14T03:36:48.522Z,10.71
2023-03-14T03:39:15.047Z,10.76
2023-03-14T03:41:41.646Z,10.69
2023-03-14T03:44:08.126Z,10.69
2023-03-14T03:46:34.773Z,10.79
2023-03-14T03:49:01.478Z,10.66
2023-03-14T03:51:28.216Z,10.65
2023-03-14T03:53:54.885Z,10.68
2023-03-14T03:56:21.342Z,10.62
2023-03-14T03:58:47.920Z,10.55
2023-03-14T04:01:14.662Z,10.56
2023-03-14T04:03:41.664Z,10.56
2023-03-14T04:06:11.638Z,10.56
2023-03-14T04:08:38.893Z,10.61
2023-03-14T04:11:06.078Z,10.59
2023-03-14T04:13:32.794Z,10.54
2023-03-14T04:15:59.691Z,10.44
2023-03-14T04:18:27.080Z,10.51
2023-03-14T04:20:55.387Z,10.61
2023-03-14T04:23:25.096Z,10.59
2023-03-14T04:25:52.743Z,10.52
2023-03-14T04:28:19.478Z,10.51
2023-03-14T04:30:46.352Z,10.54
2023-03-14T04:33:15.281Z,10.52
2023-03-14T04:35:42.101Z,10.44
2023-03-14T04:38:08.704Z,10.40
2023-03-14T04:40:38.316Z,10.37
2023-03-14T04:43:04.916Z,10.44
2023-03-14T04:45:31.721Z,10.49
2023-03-14T04:47:58.379Z,10.48
2023-03-14T04:50:24.848Z,10.49
2023-03-14T04:52:51.735Z,10.44
2023-03-14T04:55:18.429Z,10.42
2023-03-14T04:57:44.929Z,10.35
2023-03-14T05:00:12.313Z,10.28
2023-03-14T05:02:39.024Z,10.31
2023-03-14T05:05:06.052Z,10.45
2023-03-14T05:07:32.628Z,10.45
2023-03-14T05:09:59.180Z,10.52
2023-03-14T05:12:25.674Z,10.48
2023-03-14T05:14:52.338Z,10.48
2023-03-14T05:17:19.595Z,10.51
2023-03-14T05:19:46.361Z,10.52
2023-03-14T05:22:13.338Z,10.48
2023-03-14T05:24:39.854Z,10.51
2023-03-14T05:27:06.862Z,10.52
2023-03-14T05:29:33.508Z,10.58
2023-03-14T05:32:00.166Z,10.58
2023-03-14T05:34:26.812Z,10.62
2023-03-14T05:36:53.643Z,10.61
2023-03-14T05:39:20.146Z,10.56
2023-03-14T05:41:46.742Z,10.56
2023-03-14T05:44:13.346Z,10.54
2023-03-14T05:46:39.936Z,10.61
2023-03-14T05:49:06.595Z,10.52
2023-03-14T05:51:33.371Z,10.59
2023-03-14T05:53:59.980Z,10.61
2023-03-14T05:56:26.642Z,10.56
2023-03-14T05:58:53.211Z,10.58
2023-03-14T06:01:19.724Z,10.61
2023-03-14T06:03:46.354Z,10.63
2023-03-14T06:06:13.058Z,10.68
2023-03-14T06:08:39.693Z,10.71
2023-03-14T06:11:06.568Z,10.68
2023-03-14T06:13:33.433Z,10.72
2023-03-14T06:16:00.069Z,10.68
2023-03-14T06:18:26.781Z,10.66
2023-03-14T06:20:56.819Z,10.77
2023-03-14T06:23:23.621Z,10.85
2023-03-14T06:25:50.294Z,10.80
2023-03-14T06:28:16.849Z,10.92
2023-03-14T06:30:43.588Z,11.04
2023-03-14T06:33:10.048Z,11.06
2023-03-14T06:35:37.016Z,11.13
2023-03-14T06:38:04.080Z,11.22
2023-03-14T06:40:31.489Z,11.22
2023-03-14T06:42:58.160Z,11.26
2023-03-14T06:45:24.670Z,11.22
2023-03-14T06:47:51.248Z,11.30
2023-03-14T06:50:18.005Z,11.37
2023-03-14T06:52:48.885Z,11.41
2023-03-14T06:55:16.712Z,11.40
2023-03-14T06:57:44.942Z,11.45
2023-03-14T07:00:13.447Z,11.54
2023-03-14T07:02:43.247Z,11.70
2023-03-14T07:05:11.275Z,11.89
2023-03-14T07:07:38.403Z,12.09
2023-03-14T07:10:05.650Z,12.25
2023-03-14T07:12:32.544Z,12.33
2023-03-14T07:15:08.681Z,12.11
2023-03-14T07:17:43.898Z,11.91
2023-03-14T07:20:11.153Z,11.88
2023-03-14T07:22:37.872Z,11.89
2023-03-14T07:25:04.783Z,12.21
2023-03-14T07:27:31.403Z,12.74
2023-03-14T07:29:58.046Z,12.93
2023-03-14T07:32:24.744Z,13.59
2023-03-14T07:34:51.353Z,13.72
2023-03-14T07:37:17.843Z,13.72
2023-03-14T07:39:44.444Z,13.67
2023-03-14T07:42:11.993Z,13.26
2023-03-14T07:44:38.591Z,13.65
2023-03-14T07:47:05.127Z,13.32
2023-03-14T07:49:31.745Z,13.83
2023-03-14T07:51:59.135Z,14.03
2023-03-14T07:54:25.849Z,14.20
2023-03-14T07:56:53.081Z,13.80
2023-03-14T07:59:20.203Z,13.61
2023-03-14T08:01:46.786Z,13.77
2023-03-14T08:04:13.709Z,14.27
2023-03-14T08:06:40.399Z,15.22
2023-03-14T08:09:06.923Z,15.51
2023-03-14T08:11:33.603Z,15.40
2023-03-14T08:14:00.093Z,14.95
2023-03-14T08:16:26.836Z,15.07
2023-03-14T08:18:53.608Z,14.30
2023-03-14T08:21:20.289Z,14.11
2023-03-14T08:23:46.896Z,13.61
2023-03-14T08:26:13.610Z,13.58
2023-03-14T08:28:40.441Z,13.63
2023-03-14T08:31:07.769Z,14.06
2023-03-14T08:33:34.689Z,14.07
2023-03-14T08:36:01.928Z,13.93
2023-03-14T08:38:28.814Z,13.56
2023-03-14T08:41:00.336Z,13.77
2023-03-14T08:43:28.476Z,13.32
2023-03-14T08:45:59.451Z,13.45
2023-03-14T08:48:26.248Z,13.73
2023-03-14T08:50:52.912Z,13.80
2023-03-14T08:53:19.682Z,13.77
2023-03-14T08:55:46.206Z,15.55
2023-03-14T08:58:13.560Z,16.22
2023-03-14T09:00:40.198Z,14.92
2023-03-14T09:03:06.795Z,14.34
2023-03-14T09:05:35.232Z,14.28
2023-03-14T09:08:02.205Z,13.87
2023-03-14T09:10:28.748Z,13.80
2023-03-14T09:12:55.338Z,14.44
2023-03-14T09:15:21.890Z,14.06
2023-03-14T09:17:48.685Z,15.84
2023-03-14T09:20:15.281Z,17.63
2023-03-14T09:22:42.187Z,19.73
2023-03-14T09:25:09.537Z,20.19
2023-03-14T09:27:36.034Z,18.64
2023-03-14T09:30:03.599Z,20.04
2023-03-14T09:32:32.470Z,20.56
2023-03-14T09:34:59.303Z,18.30
2023-03-14T09:37:26.098Z,16.73
2023-03-14T09:39:52.658Z,16.28
2023-03-14T09:42:24.020Z,16.30
2023-03-14T09:44:53.403Z,16.42
2023-03-14T09:47:20.996Z,15.60
2023-03-14T09:49:47.603Z,14.95
2023-03-14T09:52:22.995Z,14.95
2023-03-14T09:54:55.454Z,14.92
2023-03-14T09:57:25.475Z,15.02
2023-03-14T09:59:57.114Z,14.82
2023-03-14T10:02:26.697Z,14.68
2023-03-14T10:04:55.336Z,14.40
2023-03-14T10:07:33.093Z,14.46
2023-03-14T10:10:01.055Z,14.54
2023-03-14T10:12:36.400Z,14.55
2023-03-14T10:15:18.848Z,14.69
2023-03-14T10:17:49.322Z,14.55
2023-03-14T10:20:33.887Z,14.27
2023-03-14T10:23:12.844Z,14.09
2023-03-14T10:25:42.756Z,13.99
2023-03-14T10:28:26.034Z,13.82
2023-03-14T10:30:53.237Z,13.86
2023-03-14T10:33:31.678Z,13.83
2023-03-14T10:36:01.633Z,13.79
2023-03-14T10:38:33.541Z,13.82
2023-03-14T10:41:01.032Z,13.63
2023-03-14T10:43:32.836Z,13.79
2023-03-14T10:46:10.336Z,13.69
2023-03-14T10:48:39.390Z,13.82
2023-03-14T10:51:17.867Z,13.70
2023-03-14T10:53:49.859Z,13.72
2023-03-14T10:56:19.886Z,13.65
2023-03-14T10:58:51.225Z,13.63
2023-03-14T11:01:56.295Z,13.58
2023-03-14T11:04:23.086Z,13.58
2023-03-14T11:07:08.684Z,13.58
2023-03-14T11:09:51.245Z,13.41
2023-03-14T11:12:39.542Z,13.42
2023-03-14T11:15:34.374Z,13.42
2023-03-14T11:18:36.236Z,13.25
2023-03-14T11:21:24.412Z,13.12
2023-03-14T11:24:05.783Z,13.14
2023-03-14T11:26:50.100Z,13.08
2023-03-14T11:29:32.983Z,13.14
2023-03-14T11:32:04.922Z,13.08
2023-03-14T11:34:43.964Z,13.16
2023-03-14T11:37:22.859Z,13.21
2023-03-14T11:40:10.793Z,13.22
2023-03-14T11:42:39.227Z,13.25
2023-03-14T11:45:13.722Z,13.34
2023-03-14T11:47:42.796Z,13.02
2023-03-14T11:50:21.839Z,13.04
2023-03-14T11:52:53.745Z,13.11
2023-03-14T11:55:27.068Z,13.25
2023-03-14T11:58:02.296Z,13.14
2023-03-14T12:00:30.762Z,13.15
2023-03-14T12:03:10.379Z,13.19
2023-03-14T12:05:46.358Z,12.85
2023-03-14T12:08:42.336Z,12.79
2023-03-14T12:11:15.138Z,12.34
2023-03-14T12:13:46.838Z,12.49
2023-03-14T12:16:25.801Z,12.44
2023-03-14T12:18:54.198Z,12.53
2023-03-14T12:21:21.333Z,12.68
2023-03-14T12:23:53.987Z,12.95
2023-03-14T12:26:20.659Z,13.16
2023-03-14T12:29:15.700Z,13.63
2023-03-14T12:31:45.140Z,13.89
2023-03-14T12:34:11.596Z,14.81
2023-03-14T12:36:50.628Z,15.24
2023-03-14T12:39:45.041Z,16.21
2023-03-14T12:42:21.079Z,15.70
2023-03-14T12:44:51.974Z,15.22
2023-03-14T12:47:18.652Z,16.09
2023-03-14T12:49:47.346Z,17.17
2023-03-14T12:52:20.992Z,16.50
2023-03-14T12:55:07.696Z,16.02
2023-03-14T12:57:40.879Z,16.18
2023-03-14T13:00:22.514Z,15.75
2023-03-14T13:02:50.048Z,15.47
2023-03-14T13:05:26.363Z,16.12
2023-03-14T13:07:56.134Z,15.63
2023-03-14T13:10:23.603Z,16.39
2023-03-14T13:12:57.687Z,17.22
2023-03-14T13:15:32.669Z,16.94
2023-03-14T13:18:15.725Z,18.01
2023-03-14T13:20:59.296Z,17.93
2023-03-14T13:23:31.419Z,17.87
2023-03-14T13:25:59.928Z,16.97
2023-03-14T13:28:28.241Z,18.43
2023-03-14T13:31:00.965Z,19.02
2023-03-14T13:33:27.938Z,17.59
2023-03-14T13:36:00.276Z,18.23
2023-03-14T13:38:29.566Z,19.51
2023-03-14T13:41:01.899Z,19.36
2023-03-14T13:43:34.724Z,19.63
2023-03-14T13:46:17.130Z,18.99
2023-03-14T13:48:57.229Z,20.05
2023-03-14T13:51:25.818Z,20.48
2023-03-14T13:53:54.730Z,19.84
2023-03-14T13:56:23.286Z,19.63
2023-03-14T13:58:51.012Z,18.85
2023-03-14T14:01:27.852Z,18.57
2023-03-14T14:03:57.142Z,19.09
2023-03-14T14:06:33.861Z,20.01
2023-03-14T14:09:04.019Z,19.43
2023-03-14T14:12:21.485Z,17.69
2023-03-14T14:14:58.302Z,17.39
2023-03-14T14:17:33.999Z,18.13
2023-03-14T14:20:04.370Z,17.79
2023-03-14T14:22:31.159Z,16.93
2023-03-14T14:24:58.519Z,16.71
2023-03-14T14:27:38.819Z,15.74
2023-03-14T14:30:20.471Z,15.81
2023-03-14T14:32:49.005Z,15.55
2023-03-14T14:35:31.516Z,15.65
2023-03-14T14:37:58.267Z,15.74
2023-03-14T14:40:27.483Z,15.74
2023-03-14T14:42:54.639Z,15.16
2023-03-14T14:45:24.700Z,14.18
2023-03-14T14:47:51.208Z,13.53
2023-03-14T14:50:29.501Z,13.05
2023-03-14T14:53:00.655Z,13.00
2023-03-14T14:55:40.321Z,13.00
2023-03-14T14:58:30.123Z,12.77
2023-03-14T15:01:27.710Z,12.85
2023-03-14T15:03:54.902Z,12.80
2023-03-14T15:06:22.133Z,12.80
2023-03-14T15:08:49.577Z,11.95
2023-03-14T15:11:25.678Z,10.76
2023-03-14T15:13:53.603Z,9.67
2023-03-14T15:16:29.078Z,8.89
2023-03-14T15:18:57.759Z,8.30
2023-03-14T15:21:26.217Z,7.98
2023-03-14T15:23:53.533Z,7.64
2023-03-14T15:26:23.401Z,7.33
2023-03-14T15:28:49.971Z,7.02
2023-03-14T15:31:18.598Z,6.72
2023-03-14T15:33:46.344Z,6.30
2023-03-14T15:36:28.266Z,5.80
2023-03-14T15:38:56.250Z,5.01
2023-03-14T15:41:23.441Z,4.54
2023-03-14T15:43:50.613Z,4.02
2023-03-14T15:46:18.371Z,3.94
2023-03-14T15:48:49.230Z,3.74
2023-03-14T15:51:16.376Z,3.51
2023-03-14T15:53:44.095Z,3.43
2023-03-14T15:56:16.763Z,3.34
2023-03-14T15:58:47.402Z,3.29
2023-03-14T16:01:17.059Z,3.23
2023-03-14T16:03:47.305Z,3.24
2023-03-14T16:06:14.945Z,3.16
2023-03-14T16:08:43.224Z,3.06
2023-03-14T16:11:11.173Z,3.08
2023-03-14T16:13:38.744Z,2.99
2023-03-14T16:16:06.211Z,2.77
2023-03-14T16:18:35.029Z,2.70
2023-03-14T16:21:06.466Z,2.57
2023-03-14T16:23:34.090Z,2.41
2023-03-14T16:26:04.545Z,2.37
2023-03-14T16:28:31.236Z,2.30
2023-03-14T16:31:02.690Z,2.23
2023-03-14T16:33:30.010Z,2.20
2023-03-14T16:36:00.721Z,2.07
2023-03-14T16:38:31.533Z,1.99
2023-03-14T16:41:01.092Z,2.02
2023-03-14T16:43:28.268Z,1.99
2023-03-14T16:45:57.958Z,1.99
2023-03-14T16:48:24.894Z,1.93
2023-03-14T16:50:51.496Z,1.98
2023-03-14T16:53:18.894Z,2.00
2023-03-14T16:55:46.091Z,2.02
2023-03-14T16:58:12.749Z,2.00
2023-03-14T17:00:39.756Z,1.98
2023-03-14T17:03:06.497Z,2.00
2023-03-14T17:05:33.729Z,1.96
2023-03-14T17:08:00.288Z,2.02
2023-03-14T17:10:26.829Z,1.98
2023-03-14T17:12:53.591Z,1.99
2023-03-14T17:15:21.777Z,2.02
2023-03-14T17:17:48.517Z,2.05
2023-03-14T17:20:15.073Z,2.07
2023-03-14T17:22:41.900Z,2.07
2023-03-14T17:25:08.626Z,2.07
2023-03-14T17:27:36.154Z,2.11
2023-03-14T17:30:04.976Z,2.17
2023-03-14T17:32:31.537Z,2.17
2023-03-14T17:34:58.262Z,2.20
2023-03-14T17:37:24.835Z,2.31
2023-03-14T17:39:51.911Z,2.30
2023-03-14T17:42:18.434Z,2.20
2023-03-14T17:44:46.206Z,2.29
2023-03-14T17:47:13.416Z,2.41
2023-03-14T17:49:41.692Z,2.41
2023-03-14T17:52:12.669Z,2.41
2023-03-14T17:54:40.408Z,2.52
2023-03-14T17:57:07.713Z,2.50
2023-03-14T17:59:34.478Z,2.47
2023-03-14T18:02:01.548Z,2.57
2023-03-14T18:04:28.248Z,2.61
2023-03-14T18:06:55.002Z,2.61
2023-03-14T18:09:21.860Z,2.66
2023-03-14T18:11:51.569Z,2.70
2023-03-14T18:14:21.018Z,2.72
2023-03-14T18:16:49.548Z,2.79
2023-03-14T18:19:16.426Z,2.71
2023-03-14T18:21:44.164Z,2.71
2023-03-14T18:24:11.126Z,2.66
2023-03-14T18:26:38.076Z,2.58
2023-03-14T18:29:04.957Z,2.60
2023-03-14T18:31:34.780Z,2.55
2023-03-14T18:34:01.862Z,2.54
2023-03-14T18:36:28.546Z,2.55
2023-03-14T18:38:56.914Z,2.61
2023-03-14T18:41:24.188Z,2.61
2023-03-14T18:43:52.854Z,2.66
2023-03-14T18:46:21.288Z,2.65
2023-03-14T18:48:48.475Z,2.66
2023-03-14T18:51:16.131Z,2.71
2023-03-14T18:53:43.772Z,2.65
2023-03-14T18:56:13.761Z,2.57
2023-03-14T18:58:41.222Z,2.55
2023-03-14T19:01:08.462Z,2.61
2023-03-14T19:03:37.612Z,2.58
2023-03-14T19:06:08.328Z,2.55
2023-03-14T19:08:37.360Z,2.52
2023-03-14T19:11:06.689Z,2.48
2023-03-14T19:13:34.843Z,2.48
2023-03-14T19:16:02.147Z,2.52
2023-03-14T19:18:29.838Z,2.51
2023-03-14T19:21:04.417Z,2.61
2023-03-14T19:23:32.135Z,2.62
2023-03-14T19:25:59.181Z,2.61
2023-03-14T19:28:25.774Z,2.66
2023-03-14T19:30:52.573Z,2.65
2023-03-14T19:33:19.574Z,2.65
2023-03-14T19:35:46.887Z,2.61
2023-03-14T19:38:14.308Z,2.58
2023-03-14T19:40:43.069Z,2.48
2023-03-14T19:43:09.883Z,2.50
2023-03-14T19:45:37.429Z,2.47
2023-03-14T19:48:06.618Z,2.36
2023-03-14T19:50:34.339Z,2.38
2023-03-14T19:53:03.476Z,2.36
2023-03-14T19:55:34.773Z,2.29
2023-03-14T19:58:01.451Z,2.27
2023-03-14T20:00:27.972Z,2.26
2023-03-14T20:02:54.585Z,2.20
2023-03-14T20:05:22.950Z,2.27
2023-03-14T20:07:50.098Z,2.14
2023-03-14T20:10:19.229Z,2.11
2023-03-14T20:12:47.536Z,2.13
2023-03-14T20:15:18.319Z,2.11
2023-03-14T20:17:49.141Z,2.03
2023-03-14T20:20:16.242Z,1.99
2023-03-14T20:22:43.605Z,1.93
2023-03-14T20:25:18.558Z,1.93
2023-03-14T20:27:46.934Z,1.87
2023-03-14T20:30:17.514Z,1.85
2023-03-14T20:32:44.897Z,1.75
2023-03-14T20:35:12.922Z,1.76
2023-03-14T20:37:39.996Z,1.78
2023-03-14T20:40:07.466Z,1.80
2023-03-14T20:42:34.707Z,1.79
2023-03-14T20:45:01.267Z,1.79
2023-03-14T20:47:27.804Z,1.80
2023-03-14T20:49:54.377Z,1.85
2023-03-14T20:52:22.575Z,1.78
2023-03-14T20:54:49.442Z,1.68
2023-03-14T20:57:16.612Z,1.61
2023-03-14T20:59:43.488Z,1.69
2023-03-14T21:02:10.797Z,1.59
2023-03-14T21:04:37.821Z,1.65
2023-03-14T21:07:04.417Z,1.55
2023-03-14T21:09:31.174Z,1.44
2023-03-14T21:11:57.690Z,1.35
2023-03-14T21:14:24.941Z,1.28
2023-03-14T21:16:56.356Z,1.34
2023-03-14T21:19:30.492Z,1.31
2023-03-14T21:22:01.303Z,1.23
2023-03-14T21:24:28.860Z,1.26
2023-03-14T21:26:55.498Z,1.28
2023-03-14T21:29:22.526Z,1.38
2023-03-14T21:31:50.101Z,1.37
2023-03-14T21:34:17.117Z,1.24
2023-03-14T21:36:43.861Z,1.27
2023-03-14T21:39:10.427Z,1.28
2023-03-14T21:41:37.014Z,1.23
2023-03-14T21:44:03.674Z,1.24
2023-03-14T21:46:31.211Z,1.17
2023-03-14T21:48:57.657Z,1.07
2023-03-14T21:51:29.941Z,1.01
2023-03-14T21:53:56.884Z,0.90
2023-03-14T21:56:26.947Z,0.86
2023-03-14T21:58:59.148Z,0.90
2023-03-14T22:01:25.775Z,0.90
2023-03-14T22:03:53.515Z,0.96
2023-03-14T22:06:20.631Z,0.81
2023-03-14T22:08:47.195Z,0.77
2023-03-14T22:11:14.233Z,0.81
2023-03-14T22:13:40.903Z,0.76
2023-03-14T22:16:08.173Z,0.76
2023-03-14T22:18:34.883Z,0.77
2023-03-14T22:21:01.471Z,0.72
2023-03-14T22:23:28.198Z,0.76
2023-03-14T22:25:54.783Z,0.86
2023-03-14T22:28:21.350Z,0.77
2023-03-14T22:30:52.104Z,0.75
2023-03-14T22:33:19.613Z,0.72
2023-03-14T22:35:50.602Z,0.68
2023-03-14T22:38:17.830Z,0.63
2023-03-14T22:40:44.710Z,0.65
2023-03-14T22:43:11.356Z,0.69
2023-03-14T22:45:38.085Z,0.66
2023-03-14T22:48:05.164Z,0.63
2023-03-14T22:50:31.787Z,0.56
2023-03-14T22:52:58.907Z,0.49
2023-03-14T22:55:25.689Z,0.53
2023-03-14T22:57:53.196Z,0.48
2023-03-14T23:00:20.038Z,0.46
2023-03-14T23:02:46.643Z,0.56
2023-03-14T23:05:13.345Z,0.55
2023-03-14T23:07:40.427Z,0.63
2023-03-14T23:10:07.536Z,0.58
2023-03-14T23:12:34.176Z,0.49
2023-03-14T23:15:00.665Z,0.44
2023-03-14T23:17:27.156Z,0.44
2023-03-14T23:19:54.144Z,0.42
2023-03-14T23:22:20.919Z,0.29
2023-03-14T23:24:48.758Z,0.46
2023-03-14T23:27:18.403Z,0.53
2023-03-14T23:29:48.332Z,0.46
2023-03-14T23:32:17.717Z,0.42
2023-03-14T23:34:44.361Z,0.41
2023-03-14T23:37:13.894Z,0.37
2023-03-14T23:39:44.283Z,0.32
2023-03-14T23:42:11.095Z,0.31
2023-03-14T23:44:37.824Z,0.42
2023-03-14T23:47:04.764Z,0.38
2023-03-14T23:49:31.249Z,0.37
2023-03-14T23:51:57.861Z,0.35
2023-03-14T23:54:24.441Z,0.33
2023-03-14T23:56:51.728Z,0.31
2023-03-14T23:59:18.589Z,0.24
